createdAt,value
2022-11-29T00:01:06.638Z,34.55
2022-11-29T00:04:11.948Z,34.85
2022-11-29T00:07:16.625Z,35.20
2022-11-29T00:10:21.296Z,34.30
2022-11-29T00:13:25.652Z,33.55
2022-11-29T00:16:30.587Z,36.80
2022-11-29T00:19:36.802Z,38.08
2022-11-29T00:22:41.297Z,34.50
2022-11-29T00:25:45.982Z,35.58
2022-11-29T00:28:50.429Z,37.53
2022-11-29T00:31:55.068Z,35.05
2022-11-29T00:34:59.933Z,36.15
2022-11-29T00:38:06.010Z,37.40
2022-11-29T00:41:11.364Z,35.45
2022-11-29T00:44:20.221Z,36.70
2022-11-29T00:47:24.983Z,36.63
2022-11-29T00:50:29.649Z,38.42
2022-11-29T00:53:35.948Z,39.33
2022-11-29T00:56:40.409Z,36.70
2022-11-29T00:59:45.060Z,36.38
2022-11-29T01:02:49.682Z,39.83
2022-11-29T01:06:05.628Z,40.13
2022-11-29T01:09:10.083Z,39.92
2022-11-29T01:12:14.406Z,41.78
2022-11-29T01:15:19.099Z,41.30
2022-11-29T01:18:24.591Z,41.38
2022-11-29T01:21:29.821Z,40.17
2022-11-29T01:24:34.681Z,43.22
2022-11-29T01:27:40.164Z,44.22
2022-11-29T01:30:46.626Z,45.15
2022-11-29T01:34:00.512Z,41.22
2022-11-29T01:37:08.601Z,44.22
2022-11-29T01:40:14.090Z,42.53
2022-11-29T01:43:19.126Z,41.97
2022-11-29T01:46:23.897Z,42.17
2022-11-29T01:49:42.270Z,46.03
2022-11-29T01:52:48.470Z,44.25
2022-11-29T01:56:02.613Z,42.00
2022-11-29T01:59:11.824Z,46.22
2022-11-29T02:02:27.167Z,45.72
2022-11-29T02:05:33.525Z,43.60
2022-11-29T02:08:42.482Z,44.30
2022-11-29T02:12:27.706Z,44.33
2022-11-29T02:19:11.370Z,43.45
2022-11-29T02:22:35.710Z,43.67
2022-11-29T02:25:49.320Z,45.70
2022-11-29T02:29:58.253Z,44.55
2022-11-29T02:33:26.117Z,43.58
2022-11-29T02:36:42.608Z,47.92
2022-11-29T02:40:23.013Z,48.55
2022-11-29T02:43:57.945Z,45.67
2022-11-29T02:51:25.938Z,45.92
2022-11-29T02:54:57.810Z,46.17
2022-11-29T02:58:38.317Z,47.78
2022-11-29T03:01:55.962Z,44.83
2022-11-29T03:05:17.206Z,48.38
2022-11-29T03:08:52.772Z,48.95
2022-11-29T03:12:16.662Z,47.60
2022-11-29T03:15:29.424Z,49.92
2022-11-29T03:19:04.218Z,45.63
2022-11-29T03:22:31.634Z,48.30
2022-11-29T03:25:51.052Z,49.67
2022-11-29T03:29:26.271Z,48.05
2022-11-29T03:32:57.181Z,47.65
2022-11-29T03:36:18.820Z,49.20
2022-11-29T03:39:38.372Z,48.05
2022-11-29T03:43:08.884Z,50.45
2022-11-29T03:46:35.789Z,47.17
2022-11-29T03:49:59.784Z,48.30
2022-11-29T03:53:22.738Z,49.72
2022-11-29T03:56:35.341Z,48.67
2022-11-29T04:00:07.565Z,47.92
2022-11-29T04:03:56.757Z,48.85
2022-11-29T04:07:24.607Z,50.38
2022-11-29T04:10:47.897Z,52.85
2022-11-29T04:14:30.652Z,49.67
2022-11-29T04:18:15.838Z,50.28
2022-11-29T04:25:33.021Z,49.20
2022-11-29T04:29:20.254Z,49.38
2022-11-29T04:33:14.701Z,50.50
2022-11-29T04:36:38.770Z,50.60
2022-11-29T04:40:20.741Z,49.35
2022-11-29T04:44:10.501Z,49.80
2022-11-29T04:47:35.880Z,51.95
2022-11-29T04:51:25.617Z,54.40
2022-11-29T04:54:56.144Z,54.03
2022-11-29T04:58:19.401Z,49.85
2022-11-29T05:01:38.845Z,49.70
2022-11-29T05:04:59.512Z,50.25
2022-11-29T05:08:38.560Z,49.38
2022-11-29T05:11:55.287Z,48.97
2022-11-29T05:15:44.026Z,48.80
2022-11-29T05:19:05.767Z,50.45
2022-11-29T05:22:33.125Z,50.33
2022-11-29T05:25:54.503Z,49.38
2022-11-29T05:29:45.531Z,50.47
2022-11-29T05:33:14.557Z,49.95
2022-11-29T05:37:21.937Z,53.28
2022-11-29T05:40:50.801Z,50.63
2022-11-29T05:44:13.539Z,51.45
2022-11-29T05:47:46.638Z,49.88
2022-11-29T05:51:30.890Z,46.97
2022-11-29T05:54:59.367Z,52.17
2022-11-29T05:58:40.797Z,50.42
2022-11-29T06:02:09.117Z,50.88
2022-11-29T06:05:25.022Z,52.47
2022-11-29T06:09:17.186Z,52.75
2022-11-29T06:12:24.828Z,48.78
2022-11-29T06:16:06.153Z,50.65
2022-11-29T06:19:19.119Z,50.80
2022-11-29T06:22:55.960Z,51.83
2022-11-29T06:26:38.543Z,51.55
2022-11-29T06:30:09.244Z,51.22
2022-11-29T06:33:25.394Z,53.10
2022-11-29T06:36:42.889Z,55.47
2022-11-29T06:39:48.106Z,51.25
2022-11-29T06:42:52.796Z,51.22
2022-11-29T06:46:15.731Z,54.78
2022-11-29T06:49:30.680Z,51.13
2022-11-29T06:52:54.609Z,51.15
2022-11-29T06:56:16.617Z,52.55
2022-11-29T06:59:55.175Z,51.80
2022-11-29T07:03:15.318Z,53.45
2022-11-29T07:06:27.395Z,52.30
2022-11-29T07:09:35.726Z,52.28
2022-11-29T07:12:40.758Z,52.13
2022-11-29T07:16:38.968Z,53.80
2022-11-29T07:20:01.757Z,52.47
2022-11-29T07:23:36.081Z,52.03
2022-11-29T07:27:26.025Z,51.00
2022-11-29T07:30:56.500Z,53.63
2022-11-29T07:34:09.927Z,53.08
2022-11-29T07:37:42.262Z,54.92
2022-11-29T07:41:04.894Z,50.83
2022-11-29T07:44:52.735Z,52.70
2022-11-29T07:47:57.113Z,54.65
2022-11-29T07:51:02.527Z,54.90
2022-11-29T07:54:06.749Z,54.78
2022-11-29T07:57:10.940Z,55.42
2022-11-29T08:00:16.967Z,55.38
2022-11-29T08:03:21.899Z,52.63
2022-11-29T08:06:26.731Z,55.47
2022-11-29T08:09:34.689Z,55.47
2022-11-29T08:12:50.105Z,54.25
2022-11-29T08:15:54.591Z,57.35
2022-11-29T08:18:59.323Z,56.20
2022-11-29T08:22:04.318Z,57.50
2022-11-29T08:25:10.427Z,52.65
2022-11-29T08:28:14.847Z,52.35
2022-11-29T08:31:21.351Z,55.47
2022-11-29T08:34:26.009Z,56.30
2022-11-29T08:37:30.538Z,52.55
2022-11-29T08:40:34.948Z,52.20
2022-11-29T08:43:39.528Z,53.72
2022-11-29T08:47:03.140Z,53.65
2022-11-29T08:50:16.596Z,52.80
2022-11-29T08:53:40.754Z,55.38
2022-11-29T08:57:31.469Z,56.13
2022-11-29T09:00:11.771Z,55.25
2022-11-29T09:03:34.928Z,53.45
2022-11-29T09:06:42.888Z,51.75
2022-11-29T09:09:47.111Z,53.97
2022-11-29T09:12:51.677Z,53.90
2022-11-29T09:15:55.969Z,54.83
2022-11-29T09:19:00.303Z,52.97
2022-11-29T09:22:04.785Z,54.50
2022-11-29T09:25:09.427Z,54.03
2022-11-29T09:28:13.940Z,55.85
2022-11-29T09:31:20.101Z,56.63
2022-11-29T09:34:24.805Z,54.63
2022-11-29T09:37:29.114Z,54.63
2022-11-29T09:40:57.454Z,56.65
2022-11-29T09:44:22.209Z,54.88
2022-11-29T09:47:29.712Z,53.95
2022-11-29T09:50:45.151Z,57.67
2022-11-29T09:54:14.577Z,53.47
2022-11-29T09:57:22.019Z,55.22
2022-11-29T10:00:32.659Z,54.20
2022-11-29T10:03:49.012Z,54.03
2022-11-29T10:07:26.591Z,54.88
2022-11-29T10:10:49.306Z,55.40
2022-11-29T10:14:21.739Z,51.55
2022-11-29T10:17:35.296Z,54.15
2022-11-29T10:20:48.649Z,52.95
2022-11-29T10:24:01.504Z,53.38
2022-11-29T10:27:24.064Z,52.58
2022-11-29T10:30:33.091Z,52.80
2022-11-29T10:33:41.632Z,55.63
2022-11-29T10:36:55.227Z,54.97
2022-11-29T10:40:10.693Z,57.33
2022-11-29T10:43:15.849Z,54.05
2022-11-29T10:46:34.466Z,53.85
2022-11-29T10:49:40.462Z,53.08
2022-11-29T10:52:45.437Z,54.83
2022-11-29T10:55:53.326Z,52.17
2022-11-29T10:59:05.249Z,51.08
2022-11-29T11:02:19.795Z,53.25
2022-11-29T11:05:29.457Z,54.90
2022-11-29T11:08:35.866Z,53.58
2022-11-29T11:11:55.203Z,52.03
2022-11-29T11:15:29.590Z,54.63
2022-11-29T11:18:35.941Z,55.58
2022-11-29T11:21:40.954Z,53.55
2022-11-29T11:24:45.974Z,52.88
2022-11-29T11:27:54.251Z,56.13
2022-11-29T11:31:11.084Z,55.08
2022-11-29T11:34:35.185Z,54.58
2022-11-29T11:37:39.882Z,52.85
2022-11-29T11:40:45.372Z,55.72
2022-11-29T11:44:00.792Z,54.85
2022-11-29T11:47:13.628Z,55.00
2022-11-29T11:50:32.007Z,53.97
2022-11-29T11:53:38.671Z,53.40
2022-11-29T11:56:43.794Z,54.88
2022-11-29T11:59:50.872Z,56.90
2022-11-29T12:02:55.884Z,53.08
2022-11-29T12:06:28.529Z,53.33
2022-11-29T12:09:47.814Z,51.65
2022-11-29T12:12:55.919Z,52.78
2022-11-29T12:16:12.539Z,53.65
2022-11-29T12:19:45.971Z,53.22
2022-11-29T12:23:18.443Z,55.88
2022-11-29T12:26:56.355Z,51.55
2022-11-29T12:30:02.697Z,50.35
2022-11-29T12:33:29.247Z,53.90
2022-11-29T12:37:09.791Z,50.55
2022-11-29T12:41:04.142Z,49.08
2022-11-29T12:44:29.198Z,49.97
2022-11-29T12:47:51.872Z,50.22
2022-11-29T12:51:26.460Z,50.35
2022-11-29T12:55:11.146Z,51.50
2022-11-29T12:58:49.424Z,38.25
2022-11-29T13:02:12.715Z,49.47
2022-11-29T13:05:42.392Z,49.85
2022-11-29T13:09:11.639Z,50.28
2022-11-29T13:12:58.041Z,50.83
2022-11-29T13:16:31.111Z,52.63
2022-11-29T13:19:53.819Z,52.90
2022-11-29T13:24:07.960Z,51.97
2022-11-29T13:27:25.245Z,53.53
2022-11-29T13:30:31.774Z,52.17
2022-11-29T13:34:09.153Z,53.65
2022-11-29T13:37:29.956Z,52.13
2022-11-29T13:41:06.349Z,53.15
2022-11-29T13:44:27.166Z,55.67
2022-11-29T13:47:54.295Z,53.13
2022-11-29T13:55:28.971Z,55.22
2022-11-29T13:58:38.347Z,51.95
2022-11-29T14:01:48.698Z,51.50
2022-11-29T14:04:55.498Z,54.35
2022-11-29T14:13:31.591Z,55.38
2022-11-29T14:16:49.330Z,55.03
2022-11-29T14:20:25.943Z,56.53
2022-11-29T14:23:37.980Z,53.88
2022-11-29T14:26:44.976Z,53.20
2022-11-29T14:29:49.873Z,53.95
2022-11-29T14:33:10.007Z,56.33
2022-11-29T14:36:41.629Z,54.42
2022-11-29T14:39:49.434Z,53.00
2022-11-29T14:42:57.776Z,53.65
2022-11-29T14:46:16.670Z,52.25
2022-11-29T14:49:28.070Z,51.92
2022-11-29T14:52:49.634Z,52.10
2022-11-29T14:56:34.241Z,52.63
2022-11-29T15:00:07.301Z,50.85
2022-11-29T15:03:22.679Z,52.17
2022-11-29T15:06:28.515Z,52.90
2022-11-29T15:09:36.461Z,51.78
2022-11-29T15:12:48.416Z,53.90
2022-11-29T15:16:18.377Z,51.28
2022-11-29T15:20:04.423Z,51.95
2022-11-29T15:23:23.149Z,50.83
2022-11-29T15:26:28.200Z,52.42
2022-11-29T15:29:32.834Z,54.22
2022-11-29T15:32:37.699Z,52.15
2022-11-29T15:35:53.977Z,53.63
2022-11-29T15:39:03.335Z,57.83
2022-11-29T15:42:14.632Z,56.50
2022-11-29T15:45:34.879Z,54.83
2022-11-29T15:48:39.365Z,57.45
2022-11-29T15:51:49.345Z,97.28
2022-11-29T15:55:01.594Z,60.15
2022-11-29T15:58:09.025Z,61.25
2022-11-29T16:01:21.772Z,57.40
2022-11-29T16:04:29.606Z,53.45
2022-11-29T16:07:34.377Z,55.60
2022-11-29T16:10:47.596Z,56.08
2022-11-29T16:14:23.958Z,56.75
2022-11-29T16:17:37.580Z,57.53
2022-11-29T16:20:42.759Z,58.70
2022-11-29T16:23:47.775Z,57.97
2022-11-29T16:26:52.806Z,56.60
2022-11-29T16:29:58.883Z,58.00
2022-11-29T16:33:05.733Z,53.65
2022-11-29T16:36:23.926Z,53.78
2022-11-29T16:39:29.757Z,55.95
2022-11-29T16:42:35.310Z,54.13
2022-11-29T16:45:43.861Z,56.75
2022-11-29T16:48:50.583Z,55.95
2022-11-29T16:51:55.657Z,53.42
2022-11-29T16:55:00.921Z,56.33
2022-11-29T16:58:05.270Z,58.83
2022-11-29T17:01:31.749Z,57.65
2022-11-29T17:04:36.351Z,53.60
2022-11-29T17:07:41.422Z,58.65
2022-11-29T17:10:47.152Z,64.55
2022-11-29T17:13:52.511Z,60.40
2022-11-29T17:17:02.028Z,54.15
2022-11-29T17:20:11.264Z,54.85
2022-11-29T17:23:18.954Z,56.92
2022-11-29T17:26:24.137Z,57.20
2022-11-29T17:29:28.740Z,60.40
2022-11-29T17:32:38.627Z,57.17
2022-11-29T17:35:44.701Z,57.97
2022-11-29T17:38:52.381Z,59.10
2022-11-29T17:41:59.876Z,56.38
2022-11-29T17:45:10.126Z,55.83
2022-11-29T17:48:14.714Z,56.70
2022-11-29T17:51:50.561Z,57.50
2022-11-29T17:54:47.793Z,56.10
2022-11-29T17:57:52.147Z,60.83
2022-11-29T18:01:07.619Z,60.38
2022-11-29T18:04:12.027Z,55.38
2022-11-29T18:07:18.176Z,60.85
2022-11-29T18:10:26.279Z,63.33
2022-11-29T18:13:30.851Z,66.80
2022-11-29T18:16:41.321Z,56.80
2022-11-29T18:19:46.475Z,59.65
2022-11-29T18:22:53.455Z,59.78
2022-11-29T18:26:05.310Z,58.33
2022-11-29T18:29:10.124Z,61.25
2022-11-29T18:32:15.369Z,56.28
2022-11-29T18:35:20.423Z,55.50
2022-11-29T18:38:51.139Z,58.13
2022-11-29T18:41:55.894Z,59.90
2022-11-29T18:45:00.470Z,60.10
2022-11-29T18:48:05.892Z,60.25
2022-11-29T18:51:15.866Z,61.15
2022-11-29T18:54:21.103Z,57.78
2022-11-29T18:57:25.716Z,57.70
2022-11-29T19:00:30.157Z,57.30
2022-11-29T19:03:40.786Z,61.78
2022-11-29T19:06:46.367Z,58.58
2022-11-29T19:09:51.317Z,59.50
2022-11-29T19:12:56.082Z,60.10
2022-11-29T19:16:02.070Z,61.35
2022-11-29T19:19:07.046Z,62.03
2022-11-29T19:22:15.633Z,58.28
2022-11-29T19:25:20.213Z,61.83
2022-11-29T19:28:24.723Z,59.95
2022-11-29T19:31:29.816Z,59.75
2022-11-29T19:34:34.378Z,60.40
2022-11-29T19:37:38.801Z,59.33
2022-11-29T19:40:43.596Z,59.88
2022-11-29T19:43:48.838Z,61.83
2022-11-29T19:46:53.422Z,61.88
2022-11-29T19:50:02.309Z,62.00
2022-11-29T19:53:08.063Z,65.65
2022-11-29T19:56:16.525Z,62.50
2022-11-29T19:59:23.654Z,58.85
2022-11-29T20:02:28.324Z,63.65
2022-11-29T20:05:33.106Z,59.80
2022-11-29T20:08:38.194Z,62.75
2022-11-29T20:11:42.729Z,60.60
2022-11-29T20:14:47.834Z,59.75
2022-11-29T20:17:53.465Z,61.58
2022-11-29T20:21:07.465Z,62.78
2022-11-29T20:24:14.463Z,61.85
2022-11-29T20:27:19.499Z,62.72
2022-11-29T20:30:24.059Z,63.70
2022-11-29T20:33:28.397Z,60.38
2022-11-29T20:36:44.210Z,62.75
2022-11-29T20:40:03.361Z,61.78
2022-11-29T20:43:21.386Z,60.20
2022-11-29T20:46:26.345Z,64.65
2022-11-29T20:49:31.339Z,63.83
2022-11-29T20:53:39.060Z,62.00
2022-11-29T20:56:43.898Z,62.03
2022-11-29T20:59:48.453Z,60.80
2022-11-29T21:02:53.101Z,63.67
2022-11-29T21:06:03.464Z,62.15
2022-11-29T21:09:08.785Z,62.53
2022-11-29T21:12:13.965Z,59.70
2022-11-29T21:15:19.242Z,62.20
2022-11-29T21:18:29.874Z,61.90
2022-11-29T21:22:19.851Z,60.65
2022-11-29T21:26:10.432Z,63.53
2022-11-29T21:29:22.229Z,58.92
2022-11-29T21:32:27.905Z,60.80
2022-11-29T21:35:32.852Z,61.22
2022-11-29T21:38:37.524Z,58.90
2022-11-29T21:41:42.186Z,59.72
2022-11-29T21:44:47.163Z,60.92
2022-11-29T21:47:51.907Z,57.90
2022-11-29T21:50:56.684Z,56.50
2022-11-29T21:54:03.201Z,58.75
2022-11-29T21:57:07.728Z,59.05
2022-11-29T22:00:12.815Z,60.10
2022-11-29T22:03:17.571Z,59.63
2022-11-29T22:06:24.328Z,59.42
2022-11-29T22:09:29.033Z,61.45
2022-11-29T22:12:34.857Z,56.72
2022-11-29T22:15:40.070Z,58.15
2022-11-29T22:18:47.550Z,59.22
2022-11-29T22:21:55.795Z,58.63
2022-11-29T22:25:01.556Z,60.83
2022-11-29T22:28:09.054Z,60.05
2022-11-29T22:31:13.857Z,59.15
2022-11-29T22:34:24.240Z,61.95
2022-11-29T22:37:29.088Z,58.80
2022-11-29T22:40:33.901Z,60.97
2022-11-29T22:43:40.710Z,59.63
2022-11-29T22:46:48.092Z,61.35
2022-11-29T22:49:55.423Z,56.97
2022-11-29T22:53:00.118Z,58.35
2022-11-29T22:56:09.005Z,60.67
2022-11-29T22:59:20.008Z,58.38
2022-11-29T23:02:24.822Z,58.60
2022-11-29T23:05:32.246Z,59.42
2022-11-29T23:08:38.759Z,58.40
2022-11-29T23:11:45.804Z,58.38
2022-11-29T23:14:55.839Z,55.95
2022-11-29T23:18:01.026Z,57.53
2022-11-29T23:21:13.877Z,61.83
2022-11-29T23:24:18.496Z,57.15
2022-11-29T23:27:23.882Z,58.28
2022-11-29T23:30:28.039Z,57.47
2022-11-29T23:33:32.405Z,58.03
2022-11-29T23:36:36.911Z,57.72
2022-11-29T23:39:41.191Z,57.85
2022-11-29T23:42:50.433Z,59.13
2022-11-29T23:45:54.840Z,59.47
2022-11-29T23:48:59.172Z,58.22
2022-11-29T23:52:03.357Z,56.20
2022-11-29T23:55:09.266Z,58.53
2022-11-29T23:58:14.055Z,56.33
